createdAt,value
2022-10-22T00:00:08.399Z,31.40
2022-10-22T00:02:36.060Z,30.23
2022-10-22T00:05:03.340Z,28.92
2022-10-22T00:07:30.587Z,29.88
2022-10-22T00:09:57.835Z,27.80
2022-10-22T00:12:25.431Z,27.75
2022-10-22T00:14:52.640Z,28.67
2022-10-22T00:17:19.905Z,29.55
2022-10-22T00:19:47.243Z,28.27
2022-10-22T00:22:14.617Z,28.98
2022-10-22T00:24:41.944Z,30.10
2022-10-22T00:27:10.771Z,29.45
2022-10-22T00:29:38.016Z,28.90
2022-10-22T00:32:06.103Z,28.15
2022-10-22T00:34:33.385Z,30.38
2022-10-22T00:37:00.646Z,29.73
2022-10-22T00:39:28.630Z,27.65
2022-10-22T00:41:56.567Z,29.35
2022-10-22T00:44:42.514Z,28.70
2022-10-22T00:47:09.715Z,28.00
2022-10-22T00:49:37.176Z,27.42
2022-10-22T00:52:04.459Z,27.65
2022-10-22T00:54:31.654Z,26.75
2022-10-22T00:56:58.876Z,27.40
2022-10-22T00:59:26.180Z,27.20
2022-10-22T01:01:53.413Z,27.13
2022-10-22T01:04:21.130Z,27.98
2022-10-22T01:06:48.581Z,29.02
2022-10-22T01:09:54.057Z,29.42
2022-10-22T01:12:37.127Z,30.15
2022-10-22T01:15:04.567Z,28.63
2022-10-22T01:17:34.822Z,29.42
2022-10-22T01:20:10.619Z,29.13
2022-10-22T01:22:55.823Z,29.00
2022-10-22T01:25:33.611Z,28.10
2022-10-22T01:28:19.327Z,27.58
2022-10-22T01:30:47.219Z,28.17
2022-10-22T01:33:16.185Z,28.02
2022-10-22T01:35:45.342Z,28.38
2022-10-22T01:38:14.955Z,27.42
2022-10-22T01:40:42.617Z,29.23
2022-10-22T01:43:10.701Z,28.60
2022-10-22T01:45:45.502Z,27.90
2022-10-22T01:48:30.898Z,29.40
2022-10-22T01:51:16.798Z,28.88
2022-10-22T01:54:02.953Z,26.88
2022-10-22T01:56:30.164Z,28.42
2022-10-22T01:59:12.508Z,28.25
2022-10-22T02:01:48.062Z,27.90
2022-10-22T02:04:15.291Z,28.15
2022-10-22T02:06:44.371Z,28.88
2022-10-22T02:09:13.849Z,29.55
2022-10-22T02:11:41.946Z,30.20
2022-10-22T02:14:10.066Z,29.73
2022-10-22T02:16:45.195Z,28.23
2022-10-22T02:19:16.999Z,29.63
2022-10-22T02:21:44.571Z,29.80
2022-10-22T02:24:11.927Z,28.20
2022-10-22T02:27:02.484Z,29.65
2022-10-22T02:29:32.640Z,29.73
2022-10-22T02:32:02.085Z,29.65
2022-10-22T02:34:31.775Z,30.98
2022-10-22T02:37:00.954Z,29.08
2022-10-22T02:39:29.615Z,29.58
2022-10-22T02:41:58.037Z,30.42
2022-10-22T02:44:25.364Z,29.25
2022-10-22T02:46:52.732Z,29.23
2022-10-22T02:49:19.946Z,27.38
2022-10-22T02:51:47.190Z,27.95
2022-10-22T02:54:14.851Z,28.83
2022-10-22T02:56:42.147Z,28.55
2022-10-22T02:59:09.389Z,28.25
2022-10-22T03:01:36.627Z,27.33
2022-10-22T03:04:03.963Z,27.60
2022-10-22T03:06:31.234Z,28.05
2022-10-22T03:08:58.534Z,28.25
2022-10-22T03:11:25.856Z,27.23
2022-10-22T03:13:53.064Z,28.40
2022-10-22T03:16:20.306Z,27.05
2022-10-22T03:18:47.547Z,28.90
2022-10-22T03:21:21.789Z,26.90
2022-10-22T03:23:49.107Z,28.13
2022-10-22T03:26:16.367Z,28.63
2022-10-22T03:28:44.021Z,27.65
2022-10-22T03:31:11.265Z,27.30
2022-10-22T03:33:38.503Z,27.92
2022-10-22T03:36:06.862Z,27.77
2022-10-22T03:38:35.593Z,28.02
2022-10-22T03:41:02.943Z,28.75
2022-10-22T03:43:30.289Z,27.30
2022-10-22T03:45:57.537Z,27.48
2022-10-22T03:48:24.784Z,26.10
2022-10-22T03:50:52.077Z,27.35
2022-10-22T03:53:19.314Z,51.67
2022-10-22T03:55:46.530Z,32.83
2022-10-22T03:58:13.819Z,145.70
2022-10-22T04:00:41.051Z,30.10
2022-10-22T04:03:08.257Z,27.30
2022-10-22T04:05:35.502Z,29.08
2022-10-22T04:08:02.698Z,27.88
2022-10-22T04:10:29.957Z,28.63
2022-10-22T04:12:57.164Z,27.35
2022-10-22T04:15:26.840Z,27.95
2022-10-22T04:17:54.074Z,26.77
2022-10-22T04:20:21.302Z,28.02
2022-10-22T04:22:48.546Z,27.25
2022-10-22T04:25:15.824Z,26.80
2022-10-22T04:27:43.242Z,27.58
2022-10-22T04:30:10.891Z,27.38
2022-10-22T04:32:38.168Z,28.52
2022-10-22T04:35:05.638Z,28.23
2022-10-22T04:37:33.018Z,26.63
2022-10-22T04:40:00.419Z,29.05
2022-10-22T04:42:27.690Z,28.35
2022-10-22T04:44:54.921Z,28.23
2022-10-22T04:47:22.124Z,27.05
2022-10-22T04:49:49.379Z,29.05
2022-10-22T04:52:16.618Z,29.95
2022-10-22T04:54:43.851Z,29.63
2022-10-22T04:57:11.063Z,30.27
2022-10-22T04:59:38.327Z,31.38
2022-10-22T05:02:05.589Z,30.13
2022-10-22T05:04:32.831Z,29.00
2022-10-22T05:07:00.071Z,30.83
2022-10-22T05:09:27.308Z,29.23
2022-10-22T05:11:54.660Z,29.88
2022-10-22T05:14:23.071Z,29.98
2022-10-22T05:16:50.577Z,28.58
2022-10-22T05:19:19.478Z,28.25
2022-10-22T05:21:46.807Z,28.58
2022-10-22T05:24:14.226Z,29.20
2022-10-22T05:26:41.430Z,28.10
2022-10-22T05:29:08.647Z,28.40
2022-10-22T05:31:36.116Z,29.23
2022-10-22T05:34:03.437Z,28.33
2022-10-22T05:36:30.714Z,28.80
2022-10-22T05:38:57.971Z,29.27
2022-10-22T05:41:25.938Z,28.60
2022-10-22T05:43:55.487Z,29.75
2022-10-22T05:46:23.327Z,28.00
2022-10-22T05:48:51.296Z,29.67
2022-10-22T05:51:18.860Z,28.45
2022-10-22T05:53:46.115Z,28.20
2022-10-22T05:56:14.734Z,29.77
2022-10-22T05:58:42.270Z,29.92
2022-10-22T06:01:16.930Z,28.42
2022-10-22T06:03:44.508Z,27.70
2022-10-22T06:06:14.471Z,28.88
2022-10-22T06:08:41.902Z,28.75
2022-10-22T06:11:09.138Z,28.52
2022-10-22T06:13:36.431Z,27.75
2022-10-22T06:16:03.709Z,27.50
2022-10-22T06:18:31.035Z,28.38
2022-10-22T06:21:04.199Z,28.75
2022-10-22T06:23:31.392Z,28.30
2022-10-22T06:25:59.689Z,27.70
2022-10-22T06:28:26.952Z,28.15
2022-10-22T06:30:54.188Z,27.98
2022-10-22T06:33:21.432Z,27.23
2022-10-22T06:35:48.748Z,27.00
2022-10-22T06:38:16.102Z,26.67
2022-10-22T06:40:46.478Z,26.58
2022-10-22T06:43:14.345Z,27.88
2022-10-22T06:45:41.877Z,26.38
2022-10-22T06:48:09.132Z,26.80
2022-10-22T06:50:36.363Z,25.85
2022-10-22T06:53:03.680Z,25.17
2022-10-22T06:55:30.918Z,26.20
2022-10-22T06:57:58.094Z,26.92
2022-10-22T07:00:25.553Z,26.02
2022-10-22T07:02:57.637Z,27.40
2022-10-22T07:05:26.539Z,26.95
2022-10-22T07:07:53.745Z,25.15
2022-10-22T07:10:20.952Z,26.15
2022-10-22T07:12:48.195Z,26.10
2022-10-22T07:15:15.454Z,25.23
2022-10-22T07:17:42.715Z,25.70
2022-10-22T07:20:10.523Z,24.83
2022-10-22T07:22:37.797Z,24.08
2022-10-22T07:25:07.345Z,25.08
2022-10-22T07:27:34.853Z,24.20
2022-10-22T07:30:02.109Z,24.30
2022-10-22T07:32:29.363Z,24.63
2022-10-22T07:34:56.563Z,24.42
2022-10-22T07:37:23.764Z,25.55
2022-10-22T07:39:51.815Z,24.92
2022-10-22T07:42:19.069Z,23.70
2022-10-22T07:44:46.311Z,23.58
2022-10-22T07:47:13.532Z,24.90
2022-10-22T07:49:40.738Z,23.05
2022-10-22T07:52:08.232Z,23.67
2022-10-22T07:54:35.423Z,23.20
2022-10-22T07:57:02.612Z,22.50
2022-10-22T07:59:29.876Z,20.85
2022-10-22T08:01:57.107Z,21.48
2022-10-22T08:04:24.354Z,20.00
2022-10-22T08:06:51.563Z,20.58
2022-10-22T08:09:18.807Z,18.92
2022-10-22T08:11:46.351Z,18.08
2022-10-22T08:14:13.562Z,19.17
2022-10-22T08:16:40.876Z,18.10
2022-10-22T08:19:08.195Z,18.50
2022-10-22T08:21:35.980Z,17.35
2022-10-22T08:24:03.353Z,16.90
2022-10-22T08:26:30.636Z,16.77
2022-10-22T08:28:57.914Z,16.35
2022-10-22T08:31:25.191Z,14.90
2022-10-22T08:33:52.396Z,14.23
2022-10-22T08:36:19.609Z,14.15
2022-10-22T08:38:46.896Z,13.05
2022-10-22T08:41:18.453Z,11.75
2022-10-22T08:44:04.401Z,11.15
2022-10-22T08:46:37.798Z,10.52
2022-10-22T08:49:06.212Z,10.57
2022-10-22T08:51:40.795Z,9.68
2022-10-22T08:54:14.037Z,8.65
2022-10-22T08:56:43.688Z,8.70
2022-10-22T08:59:15.577Z,8.88
2022-10-22T09:01:44.359Z,8.25
2022-10-22T09:04:14.768Z,8.82
2022-10-22T09:06:44.336Z,8.73
2022-10-22T09:09:18.314Z,9.13
2022-10-22T09:11:47.140Z,8.73
2022-10-22T09:14:21.960Z,8.88
2022-10-22T09:17:07.606Z,9.32
2022-10-22T09:19:34.883Z,9.32
2022-10-22T09:22:08.776Z,10.40
2022-10-22T09:24:46.985Z,10.35
2022-10-22T09:27:19.162Z,10.13
2022-10-22T09:29:47.263Z,10.82
2022-10-22T09:32:18.212Z,10.85
2022-10-22T09:34:50.485Z,11.07
2022-10-22T09:37:18.999Z,10.35
2022-10-22T09:39:47.372Z,10.35
2022-10-22T09:42:16.637Z,10.68
2022-10-22T09:44:47.743Z,10.65
2022-10-22T09:47:42.692Z,10.13
2022-10-22T09:50:22.232Z,9.55
2022-10-22T09:52:59.929Z,9.90
2022-10-22T09:55:27.754Z,8.93
2022-10-22T09:57:56.106Z,9.50
2022-10-22T10:00:25.090Z,9.43
2022-10-22T10:02:59.142Z,8.93
2022-10-22T10:05:28.095Z,9.48
2022-10-22T10:07:55.330Z,9.02
2022-10-22T10:10:29.517Z,9.60
2022-10-22T10:13:02.268Z,8.50
2022-10-22T10:15:41.096Z,8.27
2022-10-22T10:18:17.309Z,8.23
2022-10-22T10:20:44.574Z,7.63
2022-10-22T10:23:14.949Z,9.10
2022-10-22T10:25:42.404Z,7.50
2022-10-22T10:28:12.422Z,7.88
2022-10-22T10:30:44.521Z,7.72
2022-10-22T10:33:30.248Z,7.22
2022-10-22T10:36:03.426Z,7.13
2022-10-22T10:38:31.623Z,6.95
2022-10-22T10:41:12.967Z,7.10
2022-10-22T10:43:46.120Z,6.55
2022-10-22T10:46:37.040Z,6.95
2022-10-22T10:49:31.007Z,6.20
2022-10-22T10:52:15.245Z,6.25
2022-10-22T10:54:47.595Z,6.45
2022-10-22T10:57:38.270Z,6.43
2022-10-22T11:00:14.799Z,5.45
2022-10-22T11:02:50.831Z,5.93
2022-10-22T11:05:33.365Z,5.75
2022-10-22T11:08:02.112Z,5.93
2022-10-22T11:10:29.472Z,6.50
2022-10-22T11:13:04.789Z,5.95
2022-10-22T11:15:33.954Z,5.97
2022-10-22T11:18:07.807Z,5.68
2022-10-22T11:20:37.834Z,4.97
2022-10-22T11:23:19.651Z,5.40
2022-10-22T11:25:49.095Z,5.22
2022-10-22T11:28:26.682Z,5.13
2022-10-22T11:31:02.970Z,5.70
2022-10-22T11:33:34.743Z,5.20
2022-10-22T11:36:03.233Z,5.05
2022-10-22T11:38:32.877Z,5.13
2022-10-22T11:41:11.956Z,5.18
2022-10-22T11:43:58.732Z,4.90
2022-10-22T11:46:28.292Z,4.40
2022-10-22T11:49:06.621Z,5.18
2022-10-22T11:51:38.356Z,5.00
2022-10-22T11:54:42.253Z,5.13
2022-10-22T11:57:15.372Z,5.05
2022-10-22T11:59:49.660Z,4.53
2022-10-22T12:02:24.129Z,5.30
2022-10-22T12:04:51.487Z,4.93
2022-10-22T12:07:35.588Z,5.78
2022-10-22T12:10:06.010Z,5.65
2022-10-22T12:12:36.937Z,5.35
2022-10-22T12:15:21.881Z,6.05
2022-10-22T12:17:49.219Z,5.97
2022-10-22T12:20:17.596Z,5.45
2022-10-22T12:22:44.886Z,6.10
2022-10-22T12:25:25.819Z,6.80
2022-10-22T12:27:57.208Z,5.13
2022-10-22T12:30:28.760Z,5.93
2022-10-22T12:35:25.668Z,6.05
2022-10-22T12:37:53.403Z,5.97
2022-10-22T12:40:22.208Z,6.47
2022-10-22T12:42:53.870Z,6.95
2022-10-22T12:45:21.591Z,6.15
2022-10-22T12:47:53.257Z,7.10
2022-10-22T12:50:22.698Z,7.10
2022-10-22T12:52:50.180Z,6.47
2022-10-22T12:55:18.636Z,7.35
2022-10-22T12:57:47.536Z,7.88
2022-10-22T13:00:25.486Z,7.72
2022-10-22T13:02:53.506Z,6.90
2022-10-22T13:05:20.755Z,7.55
2022-10-22T13:07:50.738Z,8.82
2022-10-22T13:10:19.904Z,8.25
2022-10-22T13:12:50.594Z,8.85
2022-10-22T13:15:35.871Z,8.80
2022-10-22T13:18:03.729Z,9.70
2022-10-22T13:20:31.121Z,9.00
2022-10-22T13:23:00.347Z,10.65
2022-10-22T13:25:29.500Z,10.88
2022-10-22T13:27:58.440Z,11.02
2022-10-22T13:30:36.243Z,11.43
2022-10-22T13:33:07.744Z,10.93
2022-10-22T13:38:02.316Z,9.88
2022-10-22T13:40:29.682Z,10.15
2022-10-22T13:42:56.902Z,9.52
2022-10-22T13:45:24.278Z,9.80
2022-10-22T13:47:55.340Z,7.60
2022-10-22T13:50:22.686Z,8.05
2022-10-22T13:52:54.376Z,6.45
2022-10-22T13:55:27.492Z,5.57
2022-10-22T13:57:57.216Z,5.03
2022-10-22T14:00:24.874Z,4.28
2022-10-22T14:02:54.236Z,5.03
2022-10-22T14:05:21.500Z,4.93
2022-10-22T14:07:48.906Z,5.20
2022-10-22T14:10:23.403Z,4.82
2022-10-22T14:12:53.404Z,4.50
2022-10-22T14:15:24.021Z,4.63
2022-10-22T14:17:54.672Z,4.32
2022-10-22T14:20:26.505Z,4.93
2022-10-22T14:22:53.721Z,5.55
2022-10-22T14:25:22.392Z,5.53
2022-10-22T14:27:49.730Z,5.22
2022-10-22T14:30:21.059Z,5.45
2022-10-22T14:32:51.340Z,5.78
2022-10-22T14:35:21.784Z,6.05
2022-10-22T14:37:49.110Z,6.00
2022-10-22T14:40:17.847Z,5.63
2022-10-22T14:42:46.112Z,4.85
2022-10-22T14:45:21.599Z,4.38
2022-10-22T14:47:49.680Z,4.00
2022-10-22T14:50:17.419Z,4.57
2022-10-22T14:52:45.052Z,4.50
2022-10-22T14:55:13.527Z,4.70
2022-10-22T14:57:41.310Z,4.03
2022-10-22T15:00:16.682Z,3.75
2022-10-22T15:02:44.375Z,3.55
2022-10-22T15:05:11.869Z,3.58
2022-10-22T15:07:40.191Z,3.90
2022-10-22T15:10:08.582Z,3.40
2022-10-22T15:12:36.083Z,4.20
2022-10-22T15:15:03.388Z,3.55
2022-10-22T15:17:30.728Z,3.20
2022-10-22T15:20:01.133Z,3.10
2022-10-22T15:22:28.699Z,3.47
2022-10-22T15:24:56.025Z,3.15
2022-10-22T15:27:23.238Z,3.30
2022-10-22T15:29:50.554Z,4.15
2022-10-22T15:32:17.922Z,3.58
2022-10-22T15:34:45.160Z,3.55
2022-10-22T15:37:13.849Z,3.30
2022-10-22T15:39:41.909Z,4.05
2022-10-22T15:42:10.030Z,3.92
2022-10-22T15:44:37.316Z,3.58
2022-10-22T15:47:06.425Z,3.90
2022-10-22T15:49:34.998Z,3.72
2022-10-22T15:52:02.452Z,3.63
2022-10-22T15:54:30.406Z,4.00
2022-10-22T15:56:58.660Z,4.75
2022-10-22T15:59:26.157Z,4.60
2022-10-22T16:01:53.402Z,4.18
2022-10-22T16:04:20.815Z,2.92
2022-10-22T16:06:49.422Z,3.60
2022-10-22T16:09:18.678Z,3.38
2022-10-22T16:11:46.492Z,3.70
2022-10-22T16:14:15.215Z,3.50
2022-10-22T16:16:46.766Z,3.33
2022-10-22T16:21:41.496Z,4.25
2022-10-22T16:24:09.598Z,16.83
2022-10-22T16:26:36.854Z,4.65
2022-10-22T16:29:05.171Z,3.10
2022-10-22T16:31:32.474Z,2.80
2022-10-22T16:33:59.707Z,3.08
2022-10-22T16:36:26.980Z,2.95
2022-10-22T16:38:54.267Z,2.55
2022-10-22T16:41:22.960Z,2.13
2022-10-22T16:43:51.739Z,2.00
2022-10-22T16:46:20.452Z,2.08
2022-10-22T16:48:48.686Z,2.38
2022-10-22T16:51:17.237Z,2.40
2022-10-22T16:53:44.493Z,2.42
2022-10-22T16:56:15.383Z,2.50
2022-10-22T16:58:46.535Z,2.25
2022-10-22T17:01:17.694Z,22.90
2022-10-22T17:03:45.408Z,4.25
2022-10-22T17:06:12.671Z,2.35
2022-10-22T17:08:40.686Z,2.30
2022-10-22T17:11:08.840Z,2.85
2022-10-22T17:13:36.512Z,3.38
2022-10-22T17:16:08.193Z,2.70
2022-10-22T17:21:02.670Z,2.33
2022-10-22T17:23:29.876Z,2.47
2022-10-22T17:26:00.918Z,2.35
2022-10-22T17:28:28.539Z,3.05
2022-10-22T17:31:32.706Z,3.00
2022-10-22T17:34:00.122Z,3.70
2022-10-22T17:36:30.441Z,3.75
2022-10-22T17:39:01.334Z,3.60
2022-10-22T17:41:29.835Z,3.50
2022-10-22T17:43:58.052Z,3.88
2022-10-22T17:46:27.019Z,4.93
2022-10-22T17:48:55.217Z,4.90
2022-10-22T17:51:23.360Z,5.63
2022-10-22T17:53:50.793Z,73.43
2022-10-22T17:56:19.412Z,55.75
2022-10-22T17:58:46.683Z,11.32
2022-10-22T18:01:45.219Z,4.47
2022-10-22T18:04:15.141Z,3.20
2022-10-22T18:06:42.451Z,3.17
2022-10-22T18:09:12.341Z,3.70
2022-10-22T18:11:41.756Z,3.78
2022-10-22T18:14:09.025Z,3.40
2022-10-22T18:16:36.282Z,4.18
2022-10-22T18:19:03.590Z,3.72
2022-10-22T18:21:31.196Z,4.47
2022-10-22T18:24:01.717Z,4.97
2022-10-22T18:26:29.057Z,5.25
2022-10-22T18:28:57.804Z,5.40
2022-10-22T18:31:26.026Z,4.60
2022-10-22T18:36:27.043Z,4.18
2022-10-22T18:38:59.981Z,3.83
2022-10-22T18:41:27.855Z,3.88
2022-10-22T18:43:56.298Z,4.03
2022-10-22T18:46:26.908Z,3.97
2022-10-22T18:48:54.747Z,2.88
2022-10-22T18:51:22.336Z,3.55
2022-10-22T18:54:04.719Z,2.90
2022-10-22T18:56:39.519Z,3.60
2022-10-22T18:59:06.788Z,4.10
2022-10-22T19:01:35.558Z,3.70
2022-10-22T19:04:02.860Z,3.95
2022-10-22T19:06:34.412Z,3.75
2022-10-22T19:09:04.387Z,4.10
2022-10-22T19:11:31.720Z,4.13
2022-10-22T19:13:59.122Z,4.00
2022-10-22T19:16:27.135Z,3.47
2022-10-22T19:18:59.126Z,5.15
2022-10-22T19:21:26.623Z,4.70
2022-10-22T19:24:00.496Z,4.20
2022-10-22T19:26:28.388Z,4.45
2022-10-22T19:28:56.290Z,3.92
2022-10-22T19:31:24.405Z,4.43
2022-10-22T19:33:54.575Z,4.47
2022-10-22T19:36:24.430Z,3.97
2022-10-22T19:38:52.101Z,6.20
2022-10-22T19:41:20.632Z,6.80
2022-10-22T19:43:49.443Z,82.82
2022-10-22T19:46:17.047Z,67.50
2022-10-22T19:51:18.233Z,6.97
2022-10-22T19:53:45.499Z,5.07
2022-10-22T19:56:13.136Z,4.95
2022-10-22T19:58:40.378Z,4.13
2022-10-22T20:01:09.267Z,4.07
2022-10-22T20:03:37.505Z,4.05
2022-10-22T20:06:05.790Z,4.55
2022-10-22T20:08:35.959Z,3.90
2022-10-22T20:11:03.573Z,4.70
2022-10-22T20:13:30.883Z,4.75
2022-10-22T20:15:58.220Z,5.32
2022-10-22T20:18:25.538Z,3.53
2022-10-22T20:20:52.790Z,3.65
2022-10-22T20:23:19.987Z,3.63
2022-10-22T20:25:48.189Z,4.80
2022-10-22T20:28:16.040Z,4.00
2022-10-22T20:30:43.893Z,3.88
2022-10-22T20:33:11.573Z,4.55
2022-10-22T20:35:39.014Z,4.57
2022-10-22T20:38:07.425Z,4.05
2022-10-22T20:40:34.941Z,4.15
2022-10-22T20:43:02.668Z,5.20
2022-10-22T20:45:29.971Z,9.60
2022-10-22T20:48:02.784Z,21.98
2022-10-22T20:50:34.076Z,44.13
2022-10-22T20:53:01.326Z,11.45
2022-10-22T20:55:28.623Z,7.20
2022-10-22T20:57:55.973Z,7.85
2022-10-22T21:00:23.238Z,7.15
2022-10-22T21:02:50.495Z,7.93
2022-10-22T21:05:17.793Z,8.10
2022-10-22T21:07:45.449Z,9.43
2022-10-22T21:10:12.659Z,10.95
2022-10-22T21:12:42.413Z,9.32
2022-10-22T21:15:12.587Z,6.85
2022-10-22T21:17:40.743Z,7.35
2022-10-22T21:20:08.282Z,6.47
2022-10-22T21:22:35.558Z,22.20
2022-10-22T21:25:02.798Z,76.28
2022-10-22T21:27:29.999Z,13.15
2022-10-22T21:29:57.258Z,6.22
2022-10-22T21:32:25.205Z,6.80
2022-10-22T21:34:52.467Z,5.32
2022-10-22T21:37:19.668Z,5.57
2022-10-22T21:39:46.881Z,5.80
2022-10-22T21:42:17.268Z,5.72
2022-10-22T21:44:44.568Z,5.63
2022-10-22T21:47:11.770Z,6.07
2022-10-22T21:49:39.016Z,5.97
2022-10-22T21:52:07.204Z,5.60
2022-10-22T21:54:37.303Z,5.38
2022-10-22T21:57:05.184Z,5.40
2022-10-22T21:59:32.507Z,5.95
2022-10-22T22:02:04.799Z,5.95
2022-10-22T22:04:33.496Z,6.35
2022-10-22T22:07:00.712Z,6.55
2022-10-22T22:09:27.925Z,6.22
2022-10-22T22:11:55.160Z,6.35
2022-10-22T22:14:22.403Z,7.30
2022-10-22T22:16:49.648Z,7.47
2022-10-22T22:19:16.953Z,7.68
2022-10-22T22:21:44.174Z,7.60
2022-10-22T22:24:12.749Z,7.28
2022-10-22T22:26:40.147Z,7.38
2022-10-22T22:29:07.512Z,7.20
2022-10-22T22:31:35.852Z,7.20
2022-10-22T22:34:04.328Z,7.28
2022-10-22T22:36:38.582Z,8.02
2022-10-22T22:39:07.368Z,7.68
2022-10-22T22:41:34.962Z,8.13
2022-10-22T22:44:02.260Z,8.18
2022-10-22T22:46:29.586Z,8.68
2022-10-22T22:48:56.815Z,9.23
2022-10-22T22:51:24.104Z,9.63
2022-10-22T22:53:51.699Z,9.13
2022-10-22T22:56:20.480Z,9.55
2022-10-22T22:58:47.785Z,9.45
2022-10-22T23:01:17.844Z,9.07
2022-10-22T23:03:46.252Z,10.00
2022-10-22T23:06:14.169Z,9.93
2022-10-22T23:08:41.836Z,9.98
2022-10-22T23:11:10.922Z,11.05
2022-10-22T23:13:38.191Z,10.52
2022-10-22T23:16:09.231Z,11.30
2022-10-22T23:18:36.888Z,9.90
2022-10-22T23:21:07.562Z,10.38
2022-10-22T23:23:35.136Z,9.80
2022-10-22T23:26:02.437Z,11.48
2022-10-22T23:28:29.669Z,12.57
2022-10-22T23:30:56.887Z,12.25
2022-10-22T23:33:24.152Z,12.40
2022-10-22T23:35:51.363Z,12.65
2022-10-22T23:38:18.561Z,12.45
2022-10-22T23:40:45.817Z,14.32
2022-10-22T23:43:13.044Z,13.98
2022-10-22T23:45:40.259Z,14.50
2022-10-22T23:48:07.533Z,14.70
2022-10-22T23:50:37.447Z,15.25
2022-10-22T23:53:04.711Z,15.48
2022-10-22T23:55:31.986Z,16.45
2022-10-22T23:57:59.199Z,16.70
